Time,TemperatureF,DewpointF,PressureIn,WindDirection,WindDirectionDegrees,WindSpeedMPH,WindSpeedGustMPH,Humidity,HourlyPrecipIn,Conditions,Clouds,dailyrainin,SolarRadiationWatts/m^2,SoftwareType,DateUTC
2013-06-19 00:00:00,59.0,22.0,-100.00,NW,311,10.0,17.0,23,-99.99,,,0.00,0.000000,,2013-06-19 07:00:00,
2013-06-19 00:43:00,59.0,22.0,-100.00,NW,311,10.0,17.0,23,-99.99,,,0.00,0.000000,,2013-06-19 07:43:00,
2013-06-19 00:53:00,59.0,22.0,-100.00,NW,311,10.0,17.0,23,-99.99,,,0.00,0.000000,,2013-06-19 07:53:00,
2013-06-19 01:00:00,55.0,25.0,-100.00,North,351,5.0,9.0,30,-99.99,,,0.00,0.000000,,2013-06-19 08:00:00,
2013-06-19 01:43:00,55.0,25.0,-100.00,North,351,5.0,9.0,30,-99.99,,,0.00,0.000000,,2013-06-19 08:43:00,
2013-06-19 01:53:00,55.0,25.0,-100.00,North,351,5.0,9.0,30,-99.99,,,0.00,0.000000,,2013-06-19 08:53:00,
2013-06-19 02:00:00,55.0,26.0,-100.00,NNE,26,3.0,5.0,33,-99.99,,,0.00,0.000000,,2013-06-19 09:00:00,
2013-06-19 02:43:00,55.0,26.0,-100.00,NNE,26,3.0,5.0,33,-99.99,,,0.00,0.000000,,2013-06-19 09:43:00,
2013-06-19 02:53:00,55.0,26.0,-100.00,NNE,26,3.0,5.0,33,-99.99,,,0.00,0.000000,,2013-06-19 09:53:00,
2013-06-19 03:00:00,51.0,24.0,-100.00,NW,311,4.0,9.0,34,-99.99,,,0.00,0.000000,,2013-06-19 10:00:00,
2013-06-19 03:42:00,51.0,24.0,-100.00,NW,311,4.0,9.0,34,-99.99,,,0.00,0.000000,,2013-06-19 10:42:00,
2013-06-19 03:53:00,51.0,24.0,-100.00,NW,311,4.0,9.0,34,-99.99,,,0.00,0.000000,,2013-06-19 10:53:00,
2013-06-19 04:00:00,49.0,24.0,-100.00,NW,320,5.0,6.0,37,-99.99,,,0.00,0.000000,,2013-06-19 11:00:00,
2013-06-19 04:42:00,49.0,24.0,-100.00,NW,320,5.0,6.0,37,-99.99,,,0.00,0.000000,,2013-06-19 11:42:00,
2013-06-19 04:54:00,49.0,24.0,-100.00,NW,320,5.0,6.0,37,-99.99,,,0.00,0.000000,,2013-06-19 11:54:00,
2013-06-19 05:00:00,46.0,23.0,-100.00,NNE,21,2.0,4.0,40,-99.99,,,0.00,0.000000,,2013-06-19 12:00:00,
2013-06-19 05:44:00,46.0,23.0,-100.00,NNE,21,2.0,4.0,40,-99.99,,,0.00,0.000000,,2013-06-19 12:44:00,
2013-06-19 05:53:00,46.0,23.0,-100.00,NNE,21,2.0,4.0,40,-99.99,,,0.00,0.000000,,2013-06-19 12:53:00,
2013-06-19 06:00:00,44.0,27.0,-100.00,West,269,0.0,2.0,50,-99.99,,,0.00,29.170000,,2013-06-19 13:00:00,
2013-06-19 06:42:00,44.0,27.0,-100.00,West,269,0.0,2.0,50,-99.99,,,0.00,29.170000,,2013-06-19 13:42:00,
2013-06-19 06:54:00,44.0,27.0,-100.00,West,269,0.0,2.0,50,-99.99,,,0.00,29.170000,,2013-06-19 13:54:00,
2013-06-19 07:00:00,53.0,32.0,-100.00,West,280,1.0,2.0,45,-99.99,,,0.00,223.839996,,2013-06-19 14:00:00,
2013-06-19 07:43:00,53.0,32.0,-100.00,West,280,1.0,2.0,45,-99.99,,,0.00,223.839996,,2013-06-19 14:43:00,
2013-06-19 07:53:00,53.0,32.0,-100.00,West,280,1.0,2.0,45,-99.99,,,0.00,223.839996,,2013-06-19 14:53:00,
2013-06-19 08:00:00,56.0,24.0,-100.00,NW,307,5.0,11.0,28,-99.99,,,0.00,420.019989,,2013-06-19 15:00:00,
2013-06-19 08:42:00,56.0,24.0,-100.00,NW,307,5.0,11.0,28,-99.99,,,0.00,420.019989,,2013-06-19 15:42:00,
2013-06-19 08:53:00,56.0,24.0,-100.00,NW,307,5.0,11.0,28,-99.99,,,0.00,420.019989,,2013-06-19 15:53:00,
2013-06-19 09:00:00,58.0,26.0,-100.00,WNW,302,11.0,19.0,29,-99.99,,,0.00,608.409973,,2013-06-19 16:00:00,
2013-06-19 09:43:00,58.0,26.0,-100.00,WNW,302,11.0,19.0,29,-99.99,,,0.00,608.409973,,2013-06-19 16:43:00,
2013-06-19 09:53:00,58.0,26.0,-100.00,WNW,302,11.0,19.0,29,-99.99,,,0.00,608.409973,,2013-06-19 16:53:00,
2013-06-19 10:00:00,60.0,26.0,-100.00,WNW,294,10.0,23.0,26,-99.99,,,0.00,789.369995,,2013-06-19 17:00:00,
2013-06-19 10:43:00,60.0,26.0,-100.00,WNW,294,10.0,23.0,26,-99.99,,,0.00,789.369995,,2013-06-19 17:43:00,
2013-06-19 10:53:00,60.0,26.0,-100.00,WNW,294,10.0,23.0,26,-99.99,,,0.00,789.369995,,2013-06-19 17:53:00,
2013-06-19 11:00:00,61.0,23.0,-100.00,NW,305,9.0,21.0,22,-99.99,,,0.00,918.840027,,2013-06-19 18:00:00,
2013-06-19 11:44:00,61.0,23.0,-100.00,NW,305,9.0,21.0,22,-99.99,,,0.00,918.840027,,2013-06-19 18:44:00,
2013-06-19 11:53:00,61.0,23.0,-100.00,NW,305,9.0,21.0,22,-99.99,,,0.00,918.840027,,2013-06-19 18:53:00,
2013-06-19 12:00:00,63.0,24.0,-100.00,NNW,337,9.0,18.0,21,-99.99,,,0.00,1005.299988,,2013-06-19 19:00:00,
2013-06-19 12:43:00,63.0,24.0,-100.00,NNW,337,9.0,18.0,21,-99.99,,,0.00,1005.299988,,2013-06-19 19:43:00,
2013-06-19 12:53:00,63.0,24.0,-100.00,NNW,337,9.0,18.0,21,-99.99,,,0.00,1005.299988,,2013-06-19 19:53:00,
2013-06-19 13:00:00,66.0,23.0,-100.00,NNW,341,10.0,22.0,19,-99.99,,,0.00,1023.900024,,2013-06-19 20:00:00,
2013-06-19 13:42:00,66.0,23.0,-100.00,NNW,341,10.0,22.0,19,-99.99,,,0.00,1023.900024,,2013-06-19 20:42:00,
2013-06-19 13:52:00,66.0,23.0,-100.00,NNW,341,10.0,22.0,19,-99.99,,,0.00,1023.900024,,2013-06-19 20:52:00,
2013-06-19 14:00:00,68.0,20.0,-100.00,North,352,5.0,24.0,16,-99.99,,,-99.99,1011.109985,,2013-06-19 21:00:00,
2013-06-19 14:44:00,68.0,20.0,-100.00,North,352,5.0,24.0,16,-99.99,,,-99.99,1011.109985,,2013-06-19 21:44:00,
2013-06-19 14:52:00,68.0,20.0,-100.00,North,352,5.0,24.0,16,-99.99,,,-99.99,1011.109985,,2013-06-19 21:52:00,
2013-06-19 15:00:00,70.0,21.0,-100.00,NNW,332,8.0,23.0,15,-99.99,,,0.00,928.020020,,2013-06-19 22:00:00,
2013-06-19 15:42:00,70.0,21.0,-100.00,NNW,332,8.0,23.0,15,-99.99,,,0.00,928.020020,,2013-06-19 22:42:00,
2013-06-19 15:53:00,70.0,21.0,-100.00,NNW,332,8.0,23.0,15,-99.99,,,0.00,928.020020,,2013-06-19 22:53:00,
2013-06-19 16:00:00,71.0,20.0,-100.00,NNE,18,5.0,14.0,14,-99.99,,,0.00,799.590027,,2013-06-19 23:00:00,
2013-06-19 16:43:00,71.0,20.0,-100.00,NNE,18,5.0,14.0,14,-99.99,,,0.00,799.590027,,2013-06-19 23:43:00,
2013-06-19 16:52:00,71.0,20.0,-100.00,NNE,18,5.0,14.0,14,-99.99,,,0.00,799.590027,,2013-06-19 23:52:00,
2013-06-19 18:00:00,73.0,18.0,-100.00,SW,236,4.0,12.0,12,-99.99,,,0.00,440.359985,,2013-06-20 01:00:00,
2013-06-19 18:44:00,73.0,18.0,-100.00,SW,236,4.0,12.0,12,-99.99,,,0.00,440.359985,,2013-06-20 01:44:00,
2013-06-19 18:52:00,73.0,18.0,-100.00,SW,236,4.0,12.0,12,-99.99,,,0.00,440.359985,,2013-06-20 01:52:00,
2013-06-19 19:00:00,72.0,17.0,-100.00,WNW,300,8.0,14.0,12,-99.99,,,0.00,243.600006,,2013-06-20 02:00:00,
2013-06-19 19:43:00,72.0,17.0,-100.00,WNW,300,8.0,14.0,12,-99.99,,,0.00,243.600006,,2013-06-20 02:43:00,
2013-06-19 19:52:00,72.0,17.0,-100.00,WNW,300,8.0,14.0,12,-99.99,,,0.00,243.600006,,2013-06-20 02:52:00,
2013-06-19 20:00:00,68.0,22.0,-100.00,NNW,328,9.0,15.0,16,-99.99,,,0.00,59.160000,,2013-06-20 03:00:00,
2013-06-19 20:43:00,68.0,22.0,-100.00,NNW,328,9.0,15.0,16,-99.99,,,0.00,59.160000,,2013-06-20 03:43:00,
2013-06-19 20:54:00,68.0,22.0,-100.00,NNW,328,9.0,15.0,16,-99.99,,,0.00,59.160000,,2013-06-20 03:54:00,
2013-06-19 21:00:00,65.0,23.0,-100.00,NNW,328,6.0,11.0,20,-99.99,,,0.00,0.120000,,2013-06-20 04:00:00,
2013-06-19 21:43:00,65.0,23.0,-100.00,NNW,328,6.0,11.0,20,-99.99,,,0.00,0.120000,,2013-06-20 04:43:00,
2013-06-19 21:54:00,65.0,23.0,-100.00,NNW,328,6.0,11.0,20,-99.99,,,0.00,0.120000,,2013-06-20 04:54:00,
2013-06-19 23:00:00,59.0,25.0,-100.00,NW,312,4.0,6.0,27,-99.99,,,0.00,0.000000,,2013-06-20 06:00:00,
2013-06-19 23:43:00,59.0,25.0,-100.00,NW,312,4.0,6.0,27,-99.99,,,0.00,0.000000,,2013-06-20 06:43:00,
2013-06-19 23:53:00,59.0,25.0,-100.00,NW,312,4.0,6.0,27,-99.99,,,0.00,0.000000,,2013-06-20 06:53:00,